Time;durP1;ratioP1;P1;durP2;ratioP2;P2;SDS_P1;SDS_P2;PMS_P1;PMS_P2;Temp;Humidity;BMP_temperature;BMP_pressure;BME280_temperature;BME280_humidity;BME280_pressure;Samples;Min_cycle;Max_cycle;Signal;HPM_P1;HPM_P2
2021/11/30 00:02:00;;;;;;;12.05;6.60;;;;;;;;;;4950431;29;20662;-76
2021/11/30 00:04:29;;;;;;;10.93;6.60;;;;;;;;;;4951357;28;20043;-76
2021/11/30 00:06:56;;;;;;;12.00;6.85;;;;;;;;;;4951046;28;20480;-76
2021/11/30 00:15:05;;;;;;;11.55;7.18;;;;;;;;;;4951041;29;20085;-76
2021/11/30 00:17:32;;;;;;;11.25;6.93;;;;;;;;;;4950629;28;20027;-77
2021/11/30 00:19:58;;;;;;;12.75;7.60;;;;;;;;;;4951028;29;20028;-76
2021/11/30 00:22:24;;;;;;;9.90;6.57;;;;;;;;;;4950579;29;20508;-76
2021/11/30 00:24:52;;;;;;;11.52;7.40;;;;;;;;;;4950897;29;20043;-76
2021/11/30 00:27:19;;;;;;;12.90;9.05;;;;;;;;;;4950533;28;20038;-77
2021/11/30 00:29:45;;;;;;;13.20;7.72;;;;;;;;;;4966138;28;20517;-77
2021/11/30 00:32:11;;;;;;;12.10;7.97;;;;;;;;;;4949829;29;20043;-77
2021/11/30 00:34:37;;;;;;;11.73;7.55;;;;;;;;;;4950862;29;20122;-77
2021/11/30 00:37:04;;;;;;;13.07;8.25;;;;;;;;;;4950643;28;20035;-77
2021/11/30 00:39:30;;;;;;;12.43;8.15;;;;;;;;;;4950086;28;20027;-76
2021/11/30 00:41:59;;;;;;;12.05;7.05;;;;;;;;;;4950797;28;20093;-77
2021/11/30 00:47:31;;;;;;;12.45;7.53;;;;;;;;;;4950800;28;20030;-77
2021/11/30 00:49:59;;;;;;;10.25;6.90;;;;;;;;;;4951550;28;20525;-76
2021/11/30 00:52:26;;;;;;;11.13;7.38;;;;;;;;;;4971890;28;20481;-76
2021/11/30 00:54:52;;;;;;;11.10;6.75;;;;;;;;;;5003409;28;20023;-77
2021/11/30 00:57:19;;;;;;;10.80;6.63;;;;;;;;;;4972163;28;20026;-76
2021/11/30 00:59:45;;;;;;;9.55;5.72;;;;;;;;;;4971831;28;20035;-76
2021/11/30 01:02:11;;;;;;;11.20;6.68;;;;;;;;;;4971834;28;20038;-77
2021/11/30 01:04:37;;;;;;;11.05;7.22;;;;;;;;;;4972151;28;20102;-77
2021/11/30 01:07:03;;;;;;;11.93;7.15;;;;;;;;;;5002890;28;20038;-76
2021/11/30 01:09:29;;;;;;;10.40;6.50;;;;;;;;;;4971839;28;20057;-76
2021/11/30 01:11:55;;;;;;;11.25;7.18;;;;;;;;;;4972018;28;20019;-76
2021/11/30 01:14:21;;;;;;;9.30;6.25;;;;;;;;;;4971976;28;20027;-76
2021/11/30 01:16:48;;;;;;;10.30;6.78;;;;;;;;;;4971001;28;20389;-76
2021/11/30 01:19:14;;;;;;;10.45;6.18;;;;;;;;;;4971229;28;20029;-77
2021/11/30 01:21:41;;;;;;;12.80;8.20;;;;;;;;;;4971863;28;20054;-77
2021/11/30 01:24:08;;;;;;;9.88;6.55;;;;;;;;;;4971901;28;20054;-76
2021/11/30 01:26:34;;;;;;;11.73;6.95;;;;;;;;;;4971461;28;20039;-77
2021/11/30 01:29:00;;;;;;;12.10;6.97;;;;;;;;;;5002885;28;20439;-77
2021/11/30 01:31:26;;;;;;;13.13;7.75;;;;;;;;;;4971891;28;20095;-76
2021/11/30 01:33:52;;;;;;;11.52;7.30;;;;;;;;;;4971538;28;20031;-77
2021/11/30 01:36:18;;;;;;;11.63;7.10;;;;;;;;;;4971452;28;20477;-76
2021/11/30 01:38:44;;;;;;;11.05;7.28;;;;;;;;;;4971479;28;20102;-76
2021/11/30 01:41:12;;;;;;;12.13;6.93;;;;;;;;;;4971737;28;20030;-76
2021/11/30 01:43:43;;;;;;;10.75;7.03;;;;;;;;;;4973540;28;20030;-79
2021/11/30 01:51:31;;;;;;;11.02;6.85;;;;;;;;;;4980717;28;20050;-76
2021/11/30 01:53:57;;;;;;;11.30;7.03;;;;;;;;;;4974807;28;20046;-76
2021/11/30 01:56:24;;;;;;;9.70;7.00;;;;;;;;;;4973873;28;20027;-76
2021/11/30 01:58:50;;;;;;;10.80;7.05;;;;;;;;;;4971618;28;20027;-77
2021/11/30 02:01:17;;;;;;;9.90;6.70;;;;;;;;;;4971641;28;20283;-77
2021/11/30 02:03:43;;;;;;;11.18;6.65;;;;;;;;;;4971497;28;20401;-77
2021/11/30 02:06:09;;;;;;;10.07;6.90;;;;;;;;;;4986009;28;20023;-76
2021/11/30 02:08:35;;;;;;;10.65;6.43;;;;;;;;;;4971296;28;20403;-76
2021/11/30 02:11:01;;;;;;;9.65;6.78;;;;;;;;;;4986397;28;20026;-76
2021/11/30 02:13:27;;;;;;;9.93;6.80;;;;;;;;;;4971370;28;20066;-77
2021/11/30 02:15:54;;;;;;;11.27;7.22;;;;;;;;;;4971250;28;20030;-77
2021/11/30 02:18:24;;;;;;;11.82;7.15;;;;;;;;;;5002346;28;20081;-77
2021/11/30 02:20:57;;;;;;;10.27;6.35;;;;;;;;;;4971304;28;20308;-78
2021/11/30 02:23:43;;;;;;;9.55;6.53;;;;;;;;;;4971192;28;20034;-76
2021/11/30 02:26:12;;;;;;;10.13;6.15;;;;;;;;;;4971133;28;20122;-77
2021/11/30 02:28:42;;;;;;;10.00;7.03;;;;;;;;;;4972597;28;20074;-76
2021/11/30 02:31:09;;;;;;;9.55;6.10;;;;;;;;;;4974398;28;20038;-77
2021/11/30 02:33:37;;;;;;;10.27;6.65;;;;;;;;;;4974006;28;20073;-76
2021/11/30 02:36:17;;;;;;;9.05;6.07;;;;;;;;;;4974142;28;20428;-77
2021/11/30 02:38:43;;;;;;;8.93;6.13;;;;;;;;;;4974747;28;20019;-76
2021/11/30 02:41:09;;;;;;;9.25;5.90;;;;;;;;;;4974594;28;20094;-76
2021/11/30 02:43:35;;;;;;;10.80;6.32;;;;;;;;;;4974229;28;20046;-77
2021/11/30 02:46:01;;;;;;;12.90;6.60;;;;;;;;;;4973948;28;20038;-76
2021/11/30 02:48:27;;;;;;;9.10;5.85;;;;;;;;;;4974427;28;20034;-77
2021/11/30 02:50:53;;;;;;;8.80;5.47;;;;;;;;;;4974427;28;20037;-76
2021/11/30 02:53:21;;;;;;;8.30;5.95;;;;;;;;;;4973721;28;20263;-76
2021/11/30 02:55:47;;;;;;;8.18;5.18;;;;;;;;;;4973169;28;20030;-76
2021/11/30 02:58:14;;;;;;;8.73;5.40;;;;;;;;;;4974065;28;20393;-77
2021/11/30 03:00:40;;;;;;;10.07;5.70;;;;;;;;;;4973947;28;20038;-76
2021/11/30 03:03:06;;;;;;;8.95;5.53;;;;;;;;;;4973834;28;20500;-77
2021/11/30 03:05:33;;;;;;;8.38;5.13;;;;;;;;;;4973937;28;20389;-76
2021/11/30 03:07:59;;;;;;;9.88;5.45;;;;;;;;;;4973753;28;20031;-76
2021/11/30 03:10:26;;;;;;;8.82;5.22;;;;;;;;;;4973953;28;20031;-77
2021/11/30 03:12:53;;;;;;;9.82;5.55;;;;;;;;;;4973851;28;20031;-77
2021/11/30 03:15:20;;;;;;;8.85;5.57;;;;;;;;;;4974291;28;20418;-77
2021/11/30 03:17:46;;;;;;;10.35;5.80;;;;;;;;;;4973114;28;20029;-77
2021/11/30 03:20:13;;;;;;;9.82;5.32;;;;;;;;;;4973760;28;20493;-76
2021/11/30 03:22:39;;;;;;;11.40;7.05;;;;;;;;;;4973384;28;20027;-76
2021/11/30 03:25:06;;;;;;;10.18;6.65;;;;;;;;;;4973816;28;20027;-76
2021/11/30 03:27:34;;;;;;;10.35;7.03;;;;;;;;;;4973062;28;20042;-76
2021/11/30 03:30:00;;;;;;;9.40;6.65;;;;;;;;;;4973564;28;20078;-77
2021/11/30 03:34:59;;;;;;;12.48;7.57;;;;;;;;;;4973523;28;20121;-76
2021/11/30 03:37:25;;;;;;;9.80;6.55;;;;;;;;;;4972910;28;20030;-76
2021/11/30 03:39:52;;;;;;;12.73;7.93;;;;;;;;;;4972915;28;20031;-76
2021/11/30 03:42:19;;;;;;;12.35;8.65;;;;;;;;;;4973449;28;20122;-76
2021/11/30 03:44:45;;;;;;;13.32;8.60;;;;;;;;;;4973265;28;20392;-76
2021/11/30 03:47:11;;;;;;;11.75;7.13;;;;;;;;;;4972587;28;20428;-77
2021/11/30 03:49:37;;;;;;;11.50;8.07;;;;;;;;;;4973313;28;20078;-77
2021/11/30 03:52:03;;;;;;;20.15;12.23;;;;;;;;;;4973095;28;20022;-76
2021/11/30 03:54:29;;;;;;;11.57;7.57;;;;;;;;;;4973237;28;20026;-76
2021/11/30 03:56:57;;;;;;;13.48;8.32;;;;;;;;;;4972534;28;20026;-77
2021/11/30 03:59:23;;;;;;;10.57;7.13;;;;;;;;;;4973095;28;20019;-76
2021/11/30 04:01:50;;;;;;;10.68;7.15;;;;;;;;;;4972877;28;20027;-76
2021/11/30 04:04:29;;;;;;;12.90;7.63;;;;;;;;;;4972764;28;20031;-76
2021/11/30 04:06:55;;;;;;;12.25;7.93;;;;;;;;;;4972284;28;20027;-76
2021/11/30 04:09:22;;;;;;;8.32;5.70;;;;;;;;;;4972529;28;20114;-77
2021/11/30 04:11:48;;;;;;;13.82;7.70;;;;;;;;;;4972350;28;20034;-77
2021/11/30 04:14:15;;;;;;;9.75;6.45;;;;;;;;;;5003936;28;20485;-77
2021/11/30 04:16:41;;;;;;;10.27;7.03;;;;;;;;;;4972702;28;20072;-77
2021/11/30 04:19:07;;;;;;;14.13;8.20;;;;;;;;;;5003988;28;20085;-76
2021/11/30 04:21:33;;;;;;;12.43;8.23;;;;;;;;;;4972700;28;20062;-77
2021/11/30 04:23:59;;;;;;;12.23;7.95;;;;;;;;;;4972493;28;20097;-77
2021/11/30 04:26:25;;;;;;;10.45;6.95;;;;;;;;;;4972084;28;20143;-76
2021/11/30 04:28:51;;;;;;;11.15;7.20;;;;;;;;;;4972846;28;20063;-76
2021/11/30 04:31:17;;;;;;;13.38;7.57;;;;;;;;;;4972533;28;20515;-77
2021/11/30 04:33:43;;;;;;;11.07;6.53;;;;;;;;;;4972123;28;20377;-77
2021/11/30 04:36:09;;;;;;;9.40;6.75;;;;;;;;;;4971640;28;20033;-76
2021/11/30 04:38:36;;;;;;;9.20;5.40;;;;;;;;;;4972192;28;20050;-76
2021/11/30 04:41:03;;;;;;;10.15;6.72;;;;;;;;;;4972324;28;20339;-76
2021/11/30 04:43:34;;;;;;;9.80;6.45;;;;;;;;;;4972351;28;20030;-76
2021/11/30 04:46:04;;;;;;;10.57;6.50;;;;;;;;;;4971873;28;20153;-76
2021/11/30 04:48:32;;;;;;;9.43;6.13;;;;;;;;;;4972081;28;20027;-76
2021/11/30 04:51:01;;;;;;;9.65;6.57;;;;;;;;;;4971459;28;20023;-77
2021/11/30 04:53:28;;;;;;;9.55;6.20;;;;;;;;;;4972003;28;20456;-76
2021/11/30 04:55:55;;;;;;;11.77;6.85;;;;;;;;;;4971800;28;20340;-77
2021/11/30 04:58:21;;;;;;;9.50;5.63;;;;;;;;;;4971916;28;20061;-77
2021/11/30 05:00:47;;;;;;;11.63;6.82;;;;;;;;;;4971144;28;20038;-76
2021/11/30 05:03:14;;;;;;;11.57;6.82;;;;;;;;;;4971385;28;20034;-77
2021/11/30 05:05:40;;;;;;;9.43;5.50;;;;;;;;;;4971480;28;20076;-77
2021/11/30 05:08:06;;;;;;;11.65;7.18;;;;;;;;;;4971613;28;20548;-77
2021/11/30 05:10:33;;;;;;;9.38;6.35;;;;;;;;;;4973939;28;20070;-76
2021/11/30 05:13:01;;;;;;;11.85;7.38;;;;;;;;;;4996482;28;20030;-77
2021/11/30 05:15:27;;;;;;;12.30;7.50;;;;;;;;;;4984279;28;20026;-76
2021/11/30 05:17:53;;;;;;;11.32;6.70;;;;;;;;;;4971267;28;20437;-77
2021/11/30 05:20:19;;;;;;;11.02;7.40;;;;;;;;;;4971748;28;20038;-77
2021/11/30 05:22:45;;;;;;;11.32;7.35;;;;;;;;;;4971816;28;20109;-77
2021/11/30 05:25:12;;;;;;;12.32;6.47;;;;;;;;;;4968709;28;20030;-77
2021/11/30 05:27:40;;;;;;;12.75;7.38;;;;;;;;;;4979969;28;20030;-77
2021/11/30 05:30:08;;;;;;;10.50;6.00;;;;;;;;;;4975373;28;20047;-76
2021/11/30 05:32:34;;;;;;;10.85;6.97;;;;;;;;;;4985261;28;20037;-77
2021/11/30 05:35:00;;;;;;;10.07;6.50;;;;;;;;;;4968655;28;20106;-77
2021/11/30 05:37:26;;;;;;;10.40;5.40;;;;;;;;;;4970761;28;20023;-77
2021/11/30 05:39:53;;;;;;;10.02;5.90;;;;;;;;;;4971786;28;20035;-78
2021/11/30 05:42:20;;;;;;;10.52;6.28;;;;;;;;;;4971694;28;20019;-77
2021/11/30 05:44:46;;;;;;;9.77;5.60;;;;;;;;;;4970344;28;20027;-77
2021/11/30 05:47:13;;;;;;;10.98;6.93;;;;;;;;;;4971318;28;20015;-78
2021/11/30 05:49:39;;;;;;;10.95;6.38;;;;;;;;;;4975851;28;20295;-77
2021/11/30 05:52:05;;;;;;;11.85;7.38;;;;;;;;;;4979187;28;20058;-77
2021/11/30 05:54:36;;;;;;;9.65;5.97;;;;;;;;;;4978939;28;20062;-77
2021/11/30 05:57:03;;;;;;;10.57;5.90;;;;;;;;;;4971308;28;20175;-76
2021/11/30 05:59:35;;;;;;;11.38;6.72;;;;;;;;;;4968761;28;20051;-77
2021/11/30 06:02:02;;;;;;;8.57;6.20;;;;;;;;;;4971803;28;20503;-76
2021/11/30 06:04:28;;;;;;;10.07;6.28;;;;;;;;;;4973474;28;20069;-77
2021/11/30 06:06:54;;;;;;;9.93;6.25;;;;;;;;;;4976415;28;20045;-80
2021/11/30 06:09:20;;;;;;;11.18;5.57;;;;;;;;;;4978726;28;20037;-79
2021/11/30 06:11:46;;;;;;;10.55;6.82;;;;;;;;;;4975641;28;20030;-76
2021/11/30 06:14:12;;;;;;;11.27;6.53;;;;;;;;;;4973118;28;20031;-76
2021/11/30 06:16:38;;;;;;;10.13;5.72;;;;;;;;;;4972305;28;20393;-76
2021/11/30 06:19:04;;;;;;;10.80;6.07;;;;;;;;;;4975025;28;20114;-77
2021/11/30 06:21:32;;;;;;;9.60;5.05;;;;;;;;;;4975556;28;20061;-78
2021/11/30 06:23:58;;;;;;;8.45;4.57;;;;;;;;;;5006510;28;20019;-77
2021/11/30 06:26:24;;;;;;;8.15;4.93;;;;;;;;;;4974461;28;20444;-78
2021/11/30 06:28:50;;;;;;;8.80;5.32;;;;;;;;;;4974560;28;20078;-78
2021/11/30 06:31:17;;;;;;;9.35;5.65;;;;;;;;;;4974648;28;20122;-77
2021/11/30 06:33:43;;;;;;;9.23;5.53;;;;;;;;;;4975100;28;20027;-77
2021/11/30 06:36:09;;;;;;;8.90;5.55;;;;;;;;;;4974994;28;20109;-78
2021/11/30 06:38:35;;;;;;;10.20;6.47;;;;;;;;;;4974690;28;20454;-77
2021/11/30 06:41:01;;;;;;;11.27;6.90;;;;;;;;;;4974701;28;20029;-77
2021/11/30 06:43:27;;;;;;;11.57;6.95;;;;;;;;;;4975097;28;20353;-78
2021/11/30 06:45:54;;;;;;;9.80;6.32;;;;;;;;;;5005090;28;20263;-77
2021/11/30 06:48:20;;;;;;;11.35;6.43;;;;;;;;;;4974424;28;20030;-78
2021/11/30 06:50:47;;;;;;;10.40;6.30;;;;;;;;;;4974443;28;20485;-77
2021/11/30 06:53:13;;;;;;;11.75;7.07;;;;;;;;;;4974590;28;20100;-77
2021/11/30 06:55:39;;;;;;;10.40;6.75;;;;;;;;;;4974389;28;20532;-77
2021/11/30 06:58:05;;;;;;;11.73;7.55;;;;;;;;;;4974802;28;20544;-77
2021/11/30 07:00:31;;;;;;;9.55;5.85;;;;;;;;;;4974506;28;20053;-78
2021/11/30 07:02:58;;;;;;;9.77;6.13;;;;;;;;;;4974910;28;20378;-78
2021/11/30 07:05:33;;;;;;;9.23;5.93;;;;;;;;;;4974350;28;20121;-77
2021/11/30 07:11:03;;;;;;;9.00;6.18;;;;;;;;;;4974625;28;20092;-78
2021/11/30 07:13:31;;;;;;;10.45;6.28;;;;;;;;;;4954407;28;20027;-77
2021/11/30 07:15:58;;;;;;;10.57;6.93;;;;;;;;;;4962696;28;20022;-78
2021/11/30 07:18:24;;;;;;;9.80;6.45;;;;;;;;;;4975138;28;20022;-78
2021/11/30 07:29:42;;;;;;;9.75;6.40;;;;;;;;;;3981216;28;22304;-77
2021/11/30 07:32:08;;;;;;;9.40;6.18;;;;;;;;;;4974730;28;20070;-78
2021/11/30 07:34:35;;;;;;;8.88;5.47;;;;;;;;;;4975256;28;20035;-78
2021/11/30 07:37:01;;;;;;;8.77;6.10;;;;;;;;;;4975125;28;20061;-78
2021/11/30 07:42:32;;;;;;;7.57;5.10;;;;;;;;;;4975331;28;20058;-78
2021/11/30 07:48:04;;;;;;;7.93;5.07;;;;;;;;;;4974168;28;20097;-78
2021/11/30 07:56:18;;;;;;;7.65;4.68;;;;;;;;;;4974665;28;19913;-77
2021/11/30 08:04:52;;;;;;;7.35;4.28;;;;;;;;;;4978781;28;20058;-78
2021/11/30 08:13:24;;;;;;;;;;;;;;;;;;4974293;28;20046;-77
2021/11/30 08:18:54;;;;;;;;;;;;;;;;;;4973628;28;20085;-76
2021/11/30 08:21:20;;;;;;;6.72;3.90;;;;;;;;;;4972873;28;20316;-78
2021/11/30 08:23:46;;;;;;;6.88;4.22;;;;;;;;;;4973233;28;20027;-77
2021/11/30 08:29:15;;;;;;;;;;;;;;;;;;4973334;28;20082;-76
2021/11/30 08:37:48;;;;;;;;;;;;;;;;;;4973855;28;20085;-78
2021/11/30 08:40:15;;;;;;;6.28;3.28;;;;;;;;;;4973604;28;19997;-77
2021/11/30 08:42:41;;;;;;;5.32;2.95;;;;;;;;;;4973110;28;20508;-77
2021/11/30 08:45:07;;;;;;;6.20;3.60;;;;;;;;;;4972485;28;20031;-77
2021/11/30 08:47:34;;;;;;;5.75;2.90;;;;;;;;;;4972527;28;20027;-77
2021/11/30 08:50:00;;;;;;;6.82;2.50;;;;;;;;;;4975887;28;20030;-78
2021/11/30 08:52:28;;;;;;;4.43;2.35;;;;;;;;;;4978322;28;20519;-77
2021/11/30 08:54:56;;;;;;;5.70;2.53;;;;;;;;;;4975326;28;20046;-77
2021/11/30 08:57:23;;;;;;;4.38;2.00;;;;;;;;;;4973714;28;20023;-78
2021/11/30 08:59:49;;;;;;;6.63;2.42;;;;;;;;;;4972842;28;20378;-77
2021/11/30 09:02:16;;;;;;;4.05;2.20;;;;;;;;;;4973221;28;20150;-77
2021/11/30 09:04:42;;;;;;;5.25;2.53;;;;;;;;;;4974756;28;20023;-79
2021/11/30 09:07:08;;;;;;;4.40;2.22;;;;;;;;;;4975378;28;20034;-78
2021/11/30 09:09:34;;;;;;;5.68;2.10;;;;;;;;;;4975084;28;20033;-78
2021/11/30 09:12:00;;;;;;;4.20;1.90;;;;;;;;;;4975671;28;20030;-79
2021/11/30 09:14:26;;;;;;;6.75;2.40;;;;;;;;;;4974474;28;20026;-78
2021/11/30 09:16:53;;;;;;;6.75;2.42;;;;;;;;;;4974015;28;20085;-79
2021/11/30 09:19:19;;;;;;;7.70;1.98;;;;;;;;;;4974366;28;20057;-79
2021/11/30 09:21:46;;;;;;;9.50;2.60;;;;;;;;;;4973802;28;20031;-78
2021/11/30 09:24:12;;;;;;;3.90;1.90;;;;;;;;;;4973924;28;20027;-79
2021/11/30 09:26:38;;;;;;;8.82;2.28;;;;;;;;;;4973571;28;20034;-78
2021/11/30 09:29:05;;;;;;;11.10;2.63;;;;;;;;;;4973408;28;20122;-79
2021/11/30 09:31:31;;;;;;;4.55;1.83;;;;;;;;;;4974911;28;20023;-78
2021/11/30 09:34:01;;;;;;;11.07;3.53;;;;;;;;;;4975883;28;20055;-79
2021/11/30 09:36:27;;;;;;;3.88;1.63;;;;;;;;;;4975928;28;20496;-80
2021/11/30 09:38:53;;;;;;;9.15;2.17;;;;;;;;;;4980070;28;20057;-78
2021/11/30 09:41:19;;;;;;;4.93;1.58;;;;;;;;;;4979653;28;20061;-82
2021/11/30 09:43:45;;;;;;;9.45;2.25;;;;;;;;;;4979381;28;20405;-78
2021/11/30 09:46:11;;;;;;;6.57;1.90;;;;;;;;;;4977536;28;20053;-79
2021/11/30 09:48:37;;;;;;;10.55;3.55;;;;;;;;;;4980480;28;20025;-79
2021/11/30 09:51:05;;;;;;;4.35;1.75;;;;;;;;;;4979060;28;20082;-79
2021/11/30 09:53:31;;;;;;;6.03;1.98;;;;;;;;;;4979039;28;20103;-80
2021/11/30 09:55:58;;;;;;;8.63;2.60;;;;;;;;;;4993867;28;20023;-78
2021/11/30 09:58:25;;;;;;;7.13;2.42;;;;;;;;;;4977532;28;20007;-79
2021/11/30 10:00:54;;;;;;;6.28;4.25;;;;;;;;;;4979627;28;20034;-77
2021/11/30 10:03:21;;;;;;;8.00;2.47;;;;;;;;;;4977011;28;20411;-79
2021/11/30 10:05:48;;;;;;;7.38;2.30;;;;;;;;;;4976499;28;20067;-79
2021/11/30 10:08:24;;;;;;;5.57;2.20;;;;;;;;;;4978596;28;20555;-79
2021/11/30 10:10:50;;;;;;;4.97;2.70;;;;;;;;;;4977803;28;20033;-80
2021/11/30 10:13:16;;;;;;;5.22;2.53;;;;;;;;;;4978026;28;20031;-78
2021/11/30 10:16:02;;;;;;;7.32;2.47;;;;;;;;;;5008420;28;20042;-77
2021/11/30 10:18:28;;;;;;;6.25;2.25;;;;;;;;;;5007474;28;20030;-79
2021/11/30 10:21:21;;;;;;;6.50;2.90;;;;;;;;;;4975952;28;20418;-79
2021/11/30 10:23:54;;;;;;;6.20;2.30;;;;;;;;;;4974989;28;20042;-81
2021/11/30 10:26:20;;;;;;;;;;;;;;;;;;4980535;28;20015;-78
2021/11/30 10:28:51;;;;;;;4.35;1.75;;;;;;;;;;5007428;28;19980;-80
2021/11/30 10:31:17;;;;;;;5.32;2.47;;;;;;;;;;4976837;28;20026;-78
2021/11/30 10:33:48;;;;;;;5.00;2.67;;;;;;;;;;4979085;28;20053;-80
2021/11/30 10:36:14;;;;;;;6.05;1.95;;;;;;;;;;4977624;28;20023;-79
2021/11/30 10:38:42;;;;;;;7.78;3.40;;;;;;;;;;4977940;28;20037;-78
2021/11/30 10:41:11;;;;;;;6.10;3.40;;;;;;;;;;4978666;28;20077;-80
2021/11/30 10:43:58;;;;;;;7.03;2.83;;;;;;;;;;4976957;28;20074;-79
2021/11/30 10:46:34;;;;;;;7.82;2.55;;;;;;;;;;4992270;28;20034;-79
2021/11/30 10:49:01;;;;;;;5.57;2.33;;;;;;;;;;4976303;28;20239;-80
2021/11/30 10:51:28;;;;;;;6.85;2.75;;;;;;;;;;4976554;28;20026;-78
2021/11/30 10:53:59;;;;;;;16.98;4.63;;;;;;;;;;4977039;28;20027;-78
2021/11/30 10:56:25;;;;;;;5.38;1.95;;;;;;;;;;4976413;28;20504;-77
2021/11/30 10:58:55;;;;;;;4.93;2.47;;;;;;;;;;4977144;28;20031;-78
2021/11/30 11:01:23;;;;;;;8.38;3.00;;;;;;;;;;4976752;28;20027;-79
2021/11/30 11:04:03;;;;;;;5.22;2.40;;;;;;;;;;4977167;28;20026;-77
2021/11/30 11:06:31;;;;;;;3.95;2.20;;;;;;;;;;4976628;28;20086;-78
2021/11/30 11:09:01;;;;;;;4.88;2.55;;;;;;;;;;4975495;28;20038;-77
2021/11/30 11:11:28;;;;;;;4.13;1.52;;;;;;;;;;4976837;28;20090;-78
2021/11/30 11:13:54;;;;;;;5.18;2.10;;;;;;;;;;4975185;28;20051;-78
2021/11/30 11:16:31;;;;;;;4.60;2.03;;;;;;;;;;4976009;28;20093;-78
2021/11/30 11:18:59;;;;;;;4.07;1.65;;;;;;;;;;4976722;28;20046;-78
2021/11/30 11:21:30;;;;;;;4.57;1.63;;;;;;;;;;4991532;28;20070;-80
2021/11/30 11:24:01;;;;;;;3.13;1.30;;;;;;;;;;4960593;28;20038;-79
2021/11/30 11:26:28;;;;;;;2.85;1.27;;;;;;;;;;4958254;28;20038;-81
2021/11/30 11:28:56;;;;;;;2.92;1.10;;;;;;;;;;4964733;28;20030;-79
2021/11/30 11:31:23;;;;;;;5.18;2.10;;;;;;;;;;4976804;28;20500;-78
2021/11/30 11:33:50;;;;;;;3.15;1.17;;;;;;;;;;4977387;28;20477;-79
2021/11/30 11:36:16;;;;;;;6.03;1.45;;;;;;;;;;4970764;28;20158;-80
2021/11/30 11:38:42;;;;;;;7.70;2.10;;;;;;;;;;4981273;28;20023;-79
2021/11/30 11:41:09;;;;;;;3.58;1.40;;;;;;;;;;4981601;28;20038;-77
2021/11/30 11:43:39;;;;;;;6.18;1.67;;;;;;;;;;4969093;28;20031;-80
2021/11/30 11:46:09;;;;;;;3.35;1.10;;;;;;;;;;4991129;28;20031;-78
2021/11/30 11:48:35;;;;;;;3.70;1.20;;;;;;;;;;4975343;28;20026;-78
2021/11/30 11:51:03;;;;;;;3.42;1.20;;;;;;;;;;4975386;28;20056;-78
2021/11/30 11:53:33;;;;;;;3.42;1.13;;;;;;;;;;4976314;28;20027;-81
2021/11/30 11:56:13;;;;;;;2.85;1.25;;;;;;;;;;4976299;28;20023;-79
2021/11/30 11:58:40;;;;;;;5.10;1.77;;;;;;;;;;4975691;28;20030;-79
2021/11/30 12:01:07;;;;;;;3.28;1.25;;;;;;;;;;4976121;28;20031;-78
2021/11/30 12:03:48;;;;;;;3.20;1.13;;;;;;;;;;4975572;28;20038;-79
2021/11/30 12:06:20;;;;;;;2.92;1.02;;;;;;;;;;4976473;28;20030;-78
2021/11/30 12:09:05;;;;;;;3.45;1.70;;;;;;;;;;4975662;28;20023;-77
2021/11/30 12:11:38;;;;;;;2.90;1.08;;;;;;;;;;4986472;28;20065;-81
2021/11/30 12:14:23;;;;;;;5.18;1.10;;;;;;;;;;4982642;28;20499;-78
2021/11/30 12:17:09;;;;;;;3.63;1.10;;;;;;;;;;4974161;28;20409;-78
2021/11/30 12:19:41;;;;;;;3.22;1.10;;;;;;;;;;4975629;28;20028;-80
2021/11/30 12:22:08;;;;;;;8.68;1.80;;;;;;;;;;4976796;28;20026;-78
2021/11/30 12:24:42;;;;;;;5.80;1.67;;;;;;;;;;4975118;28;20037;-79
2021/11/30 12:27:14;;;;;;;2.90;0.95;;;;;;;;;;4973221;28;20054;-79
2021/11/30 12:29:41;;;;;;;6.30;1.73;;;;;;;;;;4973350;28;20035;-78
2021/11/30 12:32:38;;;;;;;4.05;1.20;;;;;;;;;;4974827;28;20085;-78
2021/11/30 12:35:06;;;;;;;2.45;1.00;;;;;;;;;;4965330;28;20051;-77
2021/11/30 12:37:34;;;;;;;2.03;0.80;;;;;;;;;;4973512;28;20106;-78
2021/11/30 12:40:04;;;;;;;3.47;1.40;;;;;;;;;;4975143;28;20047;-78
2021/11/30 12:42:31;;;;;;;6.28;1.17;;;;;;;;;;4975068;28;20019;-78
2021/11/30 12:44:59;;;;;;;5.07;1.50;;;;;;;;;;4964161;28;20038;-78
2021/11/30 12:47:26;;;;;;;2.47;1.17;;;;;;;;;;4976466;28;20023;-78
2021/11/30 12:49:53;;;;;;;2.83;1.00;;;;;;;;;;4974105;28;20503;-77
2021/11/30 12:52:21;;;;;;;8.70;1.10;;;;;;;;;;4972732;28;20023;-77
2021/11/30 12:54:47;;;;;;;3.53;1.30;;;;;;;;;;4974003;28;20113;-77
2021/11/30 12:57:18;;;;;;;1.95;0.70;;;;;;;;;;4974819;28;20081;-79
2021/11/30 12:59:52;;;;;;;2.20;0.80;;;;;;;;;;4988809;28;20031;-78
2021/11/30 13:02:37;;;;;;;3.45;0.90;;;;;;;;;;4973100;28;20041;-78
2021/11/30 13:05:10;;;;;;;1.70;0.63;;;;;;;;;;4974831;28;20029;-78
2021/11/30 13:10:42;;;;;;;2.78;1.00;;;;;;;;;;4974406;28;20543;-78
2021/11/30 13:13:18;;;;;;;2.90;0.80;;;;;;;;;;4972733;28;20031;-77
2021/11/30 13:15:47;;;;;;;3.13;0.90;;;;;;;;;;4971713;28;20023;-77
2021/11/30 13:18:13;;;;;;;2.78;1.20;;;;;;;;;;4969940;28;20400;-77
2021/11/30 13:20:41;;;;;;;4.53;0.80;;;;;;;;;;4972393;28;20040;-78
2021/11/30 13:23:07;;;;;;;3.03;1.25;;;;;;;;;;4973386;28;20142;-78
2021/11/30 13:25:36;;;;;;;2.35;0.80;;;;;;;;;;4973699;28;20493;-79
2021/11/30 13:28:07;;;;;;;2.88;1.08;;;;;;;;;;4983559;28;20089;-78
2021/11/30 13:30:35;;;;;;;2.47;1.08;;;;;;;;;;4980530;28;20034;-77
2021/11/30 13:33:04;;;;;;;2.78;1.08;;;;;;;;;;4976881;28;20043;-77
2021/11/30 13:35:31;;;;;;;1.33;0.70;;;;;;;;;;4967596;28;20046;-78
2021/11/30 13:38:01;;;;;;;3.03;0.93;;;;;;;;;;4956186;28;20051;-77
2021/11/30 13:40:38;;;;;;;4.65;1.63;;;;;;;;;;4969685;28;20027;-78
2021/11/30 13:43:15;;;;;;;2.90;1.25;;;;;;;;;;4972708;28;20058;-77
2021/11/30 13:45:48;;;;;;;3.33;1.27;;;;;;;;;;4972238;28;20077;-79
2021/11/30 13:48:14;;;;;;;;;;;;;;;;;;4974628;28;20054;-77
2021/11/30 13:50:42;;;;;;;3.10;1.00;;;;;;;;;;4974996;28;19906;-79
2021/11/30 13:53:10;;;;;;;3.60;1.10;;;;;;;;;;4972497;28;20496;-76
2021/11/30 13:55:37;;;;;;;2.88;0.98;;;;;;;;;;4987022;28;20023;-78
2021/11/30 13:58:04;;;;;;;2.47;1.10;;;;;;;;;;4972341;28;20022;-78
2021/11/30 14:00:31;;;;;;;2.20;0.90;;;;;;;;;;4973637;28;20027;-77
2021/11/30 14:02:57;;;;;;;2.70;1.15;;;;;;;;;;4972302;28;20054;-77
2021/11/30 14:05:27;;;;;;;3.15;1.13;;;;;;;;;;4972535;28;20035;-79
2021/11/30 14:07:54;;;;;;;3.90;1.80;;;;;;;;;;4976771;28;20031;-79
2021/11/30 14:10:27;;;;;;;3.10;1.20;;;;;;;;;;4973756;28;20027;-78
2021/11/30 14:12:54;;;;;;;3.17;1.10;;;;;;;;;;4973553;28;20026;-77
2021/11/30 14:15:21;;;;;;;2.72;1.00;;;;;;;;;;4999597;28;20078;-80
2021/11/30 14:17:48;;;;;;;4.13;1.50;;;;;;;;;;4970434;28;20027;-77
2021/11/30 14:20:25;;;;;;;3.13;1.10;;;;;;;;;;4971724;28;20027;-78
2021/11/30 14:22:52;;;;;;;2.92;1.42;;;;;;;;;;4972343;28;20069;-77
2021/11/30 14:25:20;;;;;;;5.13;1.88;;;;;;;;;;4975179;28;20034;-77
2021/11/30 14:28:00;;;;;;;2.75;1.10;;;;;;;;;;4975394;28;20462;-77
2021/11/30 14:30:27;;;;;;;2.95;1.00;;;;;;;;;;4974791;28;20031;-78
2021/11/30 14:33:05;;;;;;;3.97;1.30;;;;;;;;;;4975287;28;20031;-76
2021/11/30 14:35:45;;;;;;;3.30;1.23;;;;;;;;;;4975459;28;20062;-77
2021/11/30 14:38:11;;;;;;;6.20;1.50;;;;;;;;;;4974907;28;20050;-77
2021/11/30 14:40:39;;;;;;;4.97;1.52;;;;;;;;;;4974685;28;20035;-77
2021/11/30 14:43:04;;;;;;;9.48;2.20;;;;;;;;;;4974693;28;20644;-76
2021/11/30 14:45:33;;;;;;;3.45;1.20;;;;;;;;;;4975072;28;20054;-77
2021/11/30 14:48:07;;;;;;;3.00;1.50;;;;;;;;;;4975589;28;20502;-78
2021/11/30 14:50:53;;;;;;;5.57;1.95;;;;;;;;;;4975262;28;20037;-79
2021/11/30 14:53:20;;;;;;;2.70;1.00;;;;;;;;;;4975422;28;20037;-77
2021/11/30 14:55:53;;;;;;;3.35;1.25;;;;;;;;;;4976796;28;20507;-78
2021/11/30 14:58:20;;;;;;;2.40;1.13;;;;;;;;;;4976084;28;20412;-81
2021/11/30 15:00:53;;;;;;;2.75;1.20;;;;;;;;;;4990868;28;20031;-79
2021/11/30 15:03:31;;;;;;;4.00;1.40;;;;;;;;;;4976047;28;20030;-78
2021/11/30 15:05:59;;;;;;;2.88;1.35;;;;;;;;;;4975676;28;20342;-77
2021/11/30 15:08:31;;;;;;;2.88;1.30;;;;;;;;;;4956553;28;20058;-80
2021/11/30 15:11:00;;;;;;;2.70;1.20;;;;;;;;;;4968088;28;20042;-78
2021/11/30 15:13:41;;;;;;;3.65;1.45;;;;;;;;;;4976530;28;20027;-77
2021/11/30 15:16:22;;;;;;;2.72;1.23;;;;;;;;;;4975933;28;20022;-78
2021/11/30 15:19:07;;;;;;;3.17;1.42;;;;;;;;;;4975251;28;20019;-78
2021/11/30 15:21:34;;;;;;;2.80;1.27;;;;;;;;;;5006886;28;20027;-80
2021/11/30 15:24:01;;;;;;;3.22;1.52;;;;;;;;;;5007732;28;20560;-79
2021/11/30 15:26:33;;;;;;;2.65;1.20;;;;;;;;;;5014502;28;20058;-78
2021/11/30 15:28:59;;;;;;;3.77;1.40;;;;;;;;;;4981950;28;20420;-77
2021/11/30 15:31:26;;;;;;;3.22;1.23;;;;;;;;;;4974916;28;20030;-79
2021/11/30 15:33:52;;;;;;;3.83;1.83;;;;;;;;;;5005265;28;20026;-77
2021/11/30 15:36:19;;;;;;;3.55;1.30;;;;;;;;;;4973753;28;20038;-77
2021/11/30 15:38:45;;;;;;;2.65;1.00;;;;;;;;;;4975949;28;20050;-80
2021/11/30 15:41:11;;;;;;;2.75;1.35;;;;;;;;;;4974370;28;20546;-77
2021/11/30 15:43:37;;;;;;;3.60;1.58;;;;;;;;;;4974194;28;20035;-78
2021/11/30 15:46:05;;;;;;;3.10;1.30;;;;;;;;;;4974835;28;20026;-78
2021/11/30 15:48:32;;;;;;;4.03;1.65;;;;;;;;;;4974448;28;20034;-79
2021/11/30 15:50:58;;;;;;;6.28;1.60;;;;;;;;;;4974974;28;20065;-78
2021/11/30 15:53:25;;;;;;;4.10;1.50;;;;;;;;;;4974390;28;20118;-77
2021/11/30 15:58:36;;;;;;;3.28;1.70;;;;;;;;;;4972981;28;20037;-77